Time;durP1;ratioP1;P1;durP2;ratioP2;P2;SDS_P1;SDS_P2;PMS_P1;PMS_P2;Temp;Humidity;BMP_temperature;BMP_pressure;BME280_temperature;BME280_humidity;BME280_pressure;Samples;Min_cycle;Max_cycle;Signal;HPM_P1;HPM_P2
2022/08/22 00:02:51;;;;;;;;;2.00;2.00;;;;;22.16;46.43;98964.38;5074334;28;45326;-65
2022/08/22 00:05:35;;;;;;;;;3.00;3.00;;;;;22.13;47.14;98967.34;5009553;28;45556;-65
2022/08/22 00:08:49;;;;;;;;;5.20;2.60;;;;;22.12;47.36;98976.38;5074655;28;45558;-64
2022/08/22 00:11:31;;;;;;;;;2.00;2.00;;;;;22.07;47.26;98981.34;5059500;28;45605;-65
2022/08/22 00:14:53;;;;;;;;;2.20;2.20;;;;;22.05;47.97;98966.34;5074876;28;45465;-65
2022/08/22 00:17:30;;;;;;;;;2.60;1.60;;;;;22.03;48.08;98971.00;4993802;28;45580;-65
2022/08/22 00:20:02;;;;;;;;;2.20;2.20;;;;;22.00;47.61;98961.38;5001890;28;45568;-65
2022/08/22 00:22:46;;;;;;;;;4.00;2.00;;;;;21.96;48.39;98970.66;5051818;28;45420;-65
2022/08/22 00:25:33;;;;;;;;;3.00;2.60;;;;;21.92;48.32;98967.44;5074612;28;45463;-64
2022/08/22 00:28:17;;;;;;;;;2.00;2.00;;;;;21.88;48.46;98965.16;5073627;28;45496;-64
2022/08/22 00:30:53;;;;;;;;;3.20;3.20;;;;;21.84;48.48;98969.06;5074553;28;45298;-67
2022/08/22 00:33:33;;;;;;;;;2.60;2.60;;;;;21.81;48.80;98963.97;5074347;28;46453;-67
2022/08/22 00:36:08;;;;;;;;;2.40;2.40;;;;;21.77;48.38;98960.75;5073803;28;45538;-68
2022/08/22 00:38:40;;;;;;;;;3.20;2.00;;;;;21.77;48.42;98957.22;5069775;28;45357;-68
2022/08/22 00:41:30;;;;;;;;;2.00;2.00;;;;;21.77;49.03;98962.56;5073747;28;45533;-68
2022/08/22 00:44:10;;;;;;;;;4.80;3.20;;;;;21.76;49.19;98958.19;5073110;28;45668;-68
2022/08/22 00:47:13;;;;;;;;;1.80;1.80;;;;;21.73;49.43;98953.09;5075654;28;45483;-68
2022/08/22 00:49:59;;;;;;;;;4.00;4.00;;;;;21.70;49.22;98951.53;5078046;28;45464;-67
2022/08/22 00:52:42;;;;;;;;;3.00;2.60;;;;;21.65;49.15;98945.69;5070597;28;45412;-67
2022/08/22 00:55:19;;;;;;;;;3.00;3.00;;;;;21.63;48.76;98946.81;5058675;28;47352;-64
2022/08/22 00:58:16;;;;;;;;;2.20;2.20;;;;;21.58;49.10;98944.56;5077325;28;45739;-64
2022/08/22 01:00:50;;;;;;;;;3.00;2.60;;;;;21.55;49.27;98940.31;5051506;28;45382;-64
2022/08/22 01:03:19;;;;;;;;;4.00;3.00;;;;;21.53;49.81;98950.31;5077648;28;45337;-64
2022/08/22 01:05:50;;;;;;;;;2.00;2.00;;;;;21.51;49.40;98938.03;5077479;28;45413;-64
2022/08/22 01:08:37;;;;;;;;;2.80;2.20;;;;;21.47;48.78;98937.44;5077213;28;45421;-65
2022/08/22 01:11:17;;;;;;;;;2.40;2.00;;;;;21.43;48.88;98944.06;5072301;28;45481;-67
2022/08/22 01:14:02;;;;;;;;;3.00;3.00;;;;;21.38;49.67;98934.72;5077962;28;45353;-66
2022/08/22 01:16:49;;;;;;;;;4.20;3.00;;;;;21.34;49.70;98935.97;5077064;28;46606;-66
2022/08/22 01:19:32;;;;;;;;;2.40;2.40;;;;;21.32;49.47;98925.38;5077256;28;45448;-65
2022/08/22 01:22:19;;;;;;;;;3.00;1.60;;;;;21.30;49.24;98929.16;5077684;28;45309;-65
2022/08/22 01:27:57;;;;;;;;;2.60;2.00;;;;;21.21;50.06;98918.28;5076861;28;45739;-66
2022/08/22 01:30:44;;;;;;;;;4.00;2.00;;;;;21.21;50.61;98912.06;5077333;28;45479;-65
2022/08/22 01:33:40;;;;;;;;;4.20;2.80;;;;;21.16;50.86;98919.63;5076378;28;45468;-66
2022/08/22 01:36:14;;;;;;;;;5.00;3.00;;;;;21.09;50.46;98916.63;5077234;28;45432;-67
2022/08/22 01:39:02;;;;;;;;;3.00;3.00;;;;;21.00;50.74;98914.72;5077182;28;45642;-67
2022/08/22 01:41:30;;;;;;;;;3.80;3.00;;;;;20.87;51.27;98911.41;5076749;28;45454;-68
2022/08/22 01:44:10;;;;;;;;;0.80;0.80;;;;;20.76;51.82;98917.69;5077508;28;45333;-65
2022/08/22 01:46:46;;;;;;;;;4.20;3.00;;;;;20.68;52.63;98916.63;5076768;28;45622;-67
2022/08/22 01:49:24;;;;;;;;;3.40;3.40;;;;;20.61;52.64;98915.47;5057630;28;45703;-67
2022/08/22 01:52:06;;;;;;;;;3.00;3.00;;;;;20.54;52.72;98915.97;5076782;28;45536;-67
2022/08/22 01:54:54;;;;;;;;;3.00;3.00;;;;;20.51;52.81;98913.56;5077354;28;45429;-67
2022/08/22 01:57:22;;;;;;;;;5.25;4.00;;;;;20.47;52.67;98914.78;5075018;28;45330;-66
2022/08/22 01:59:51;;;;;;;;;4.00;3.00;;;;;20.45;53.33;98907.84;5074414;28;45802;-66
2022/08/22 02:02:38;;;;;;;;;4.80;4.00;;;;;20.45;53.40;98910.53;5075875;28;45493;-68
2022/08/22 02:05:15;;;;;;;;;3.40;3.40;;;;;20.44;53.26;98915.03;5075919;28;45385;-68
2022/08/22 02:08:13;;;;;;;;;5.00;3.60;;;;;20.43;52.83;98921.41;5076281;28;45221;-66
2022/08/22 02:11:00;;;;;;;;;3.00;3.00;;;;;20.39;52.67;98916.41;5076610;28;46752;-66
2022/08/22 02:13:57;;;;;;;;;3.00;3.00;;;;;20.38;53.06;98920.06;5074339;28;45552;-66
2022/08/22 02:16:37;;;;;;;;;2.80;2.80;;;;;20.34;53.10;98910.56;5075385;28;45544;-66
2022/08/22 02:19:08;;;;;;;;;5.20;3.00;;;;;20.31;52.79;98908.97;5073934;28;45462;-66
2022/08/22 02:22:00;;;;;;;;;4.20;3.40;;;;;20.26;53.46;98915.72;5076740;28;45467;-66
2022/08/22 02:24:35;;;;;;;;;2.80;2.80;;;;;20.19;53.55;98899.28;5075759;28;45329;-68
2022/08/22 02:27:40;;;;;;;;;4.00;4.00;;;;;20.11;53.79;98891.88;5076365;28;45567;-68
2022/08/22 02:30:11;;;;;;;;;4.40;4.00;;;;;20.06;53.96;98898.63;5069355;28;45394;-68
2022/08/22 02:32:39;;;;;;;;;3.20;3.00;;;;;19.99;54.36;98898.25;5075968;28;46456;-68
2022/08/22 02:35:35;;;;;;;;;2.60;2.60;;;;;19.92;54.49;98906.94;5076575;28;45456;-68
2022/08/22 02:38:19;;;;;;;;;3.00;3.00;;;;;19.81;55.18;98903.28;5069654;28;45500;-70
2022/08/22 02:41:11;;;;;;;;;4.00;4.00;;;;;19.75;55.17;98900.28;5076021;28;45609;-68
2022/08/22 02:43:53;;;;;;;;;4.00;3.00;;;;;19.70;55.55;98894.44;5075807;28;45495;-69
2022/08/22 02:46:40;;;;;;;;;3.40;3.40;;;;;19.66;55.36;98893.00;5075929;28;45553;-65
2022/08/22 02:49:35;;;;;;;;;5.00;4.00;;;;;19.64;55.45;98901.13;5065873;28;45350;-65
2022/08/22 02:52:08;;;;;;;;;5.60;4.00;;;;;19.62;55.92;98908.41;5075471;28;45531;-65
2022/08/22 02:54:44;;;;;;;;;4.40;3.40;;;;;19.59;55.75;98911.38;5057664;28;45623;-65
2022/08/22 02:57:39;;;;;;;;;4.20;3.00;;;;;19.51;55.77;98911.97;5066038;28;45402;-65
2022/08/22 03:00:23;;;;;;;;;5.00;5.00;;;;;19.42;56.61;98907.34;5075928;28;45492;-66
2022/08/22 03:02:51;;;;;;;;;3.00;3.00;;;;;19.33;56.61;98910.72;5075801;28;45456;-66
2022/08/22 03:05:25;;;;;;;;;2.00;2.00;;;;;19.24;57.76;98906.13;5075942;28;46555;-66
2022/08/22 03:08:19;;;;;;;;;4.00;4.00;;;;;19.14;57.76;98905.97;5074813;28;45444;-66
2022/08/22 03:11:03;;;;;;;;;6.00;4.00;;;;;19.05;58.91;98909.38;5067197;28;45397;-66
2022/08/22 03:13:38;;;;;;;;;4.00;3.00;;;;;18.97;58.98;98911.78;5073517;28;45472;-66
2022/08/22 03:16:14;;;;;;;;;2.60;2.00;;;;;18.89;58.47;98895.53;5071517;28;45969;-70
2022/08/22 03:18:55;;;;;;;;;6.60;5.20;;;;;18.82;59.36;98895.13;5074352;28;45429;-69
2022/08/22 03:21:29;;;;;;;;;6.60;5.20;;;;;18.79;59.32;98889.16;5075447;28;45613;-68
2022/08/22 03:24:19;;;;;;;;;4.50;4.50;;;;;18.75;60.49;98891.25;5071146;28;45715;-70
2022/08/22 03:27:09;;;;;;;;;5.40;5.40;;;;;18.75;59.37;98888.59;5074865;28;45468;-70
2022/08/22 03:29:47;;;;;;;;;7.80;5.80;;;;;18.78;59.43;98898.16;5063006;28;45352;-69
2022/08/22 03:32:20;;;;;;;;;3.40;3.40;;;;;18.78;59.42;98898.16;5075122;28;45546;-71
2022/08/22 03:35:08;;;;;;;;;3.00;3.00;;;;;18.78;58.68;98896.34;5075344;28;45393;-69
2022/08/22 03:37:41;;;;;;;;;4.60;4.20;;;;;18.85;58.91;98904.72;5073684;28;48190;-69
2022/08/22 03:40:18;;;;;;;;;6.20;4.00;;;;;18.91;58.90;98906.09;5074767;28;45385;-69
2022/08/22 03:43:16;;;;;;;;;4.60;3.20;;;;;18.96;59.44;98910.09;5074548;28;45611;-66
2022/08/22 03:45:41;;;;;;;;;3.75;3.25;;;;;19.01;59.46;98907.06;5057177;28;45507;-66
2022/08/22 03:48:40;;;;;;;;;5.50;4.25;;;;;19.08;59.07;98910.97;5075057;28;46234;-66
2022/08/22 03:51:36;;;;;;;;;6.00;5.40;;;;;19.12;59.16;98910.59;5075094;28;45445;-66
2022/08/22 03:54:29;;;;;;;;;4.75;4.75;;;;;19.18;59.55;98907.44;5075401;28;45516;-66
2022/08/22 03:57:28;;;;;;;;;5.50;5.00;;;;;19.21;59.91;98913.53;5073966;28;45690;-67
2022/08/22 04:00:09;;;;;;;;;4.80;3.20;;;;;19.23;60.18;98908.91;5074791;28;45540;-66
2022/08/22 04:02:56;;;;;;;;;3.00;3.00;;;;;19.25;60.03;98915.00;5074973;28;45529;-67
2022/08/22 04:05:36;;;;;;;;;4.00;4.00;;;;;19.26;59.81;98922.03;5074027;28;45471;-67
2022/08/22 04:08:08;;;;;;;;;6.50;4.00;;;;;19.26;60.39;98914.88;5074266;28;45385;-66
2022/08/22 04:10:50;;;;;;;;;7.60;4.00;;;;;19.24;60.92;98916.81;5074496;28;45495;-66
2022/08/22 04:13:31;;;;;;;;;5.00;4.00;;;;;19.22;60.56;98908.06;5074904;28;45458;-66
2022/08/22 04:16:21;;;;;;;;;5.40;4.80;;;;;19.21;60.50;98919.72;5072685;28;45456;-66
2022/08/22 04:19:11;;;;;;;;;6.00;6.00;;;;;19.23;60.47;98919.59;5072905;28;45737;-66
2022/08/22 04:22:00;;;;;;;;;5.75;5.75;;;;;19.23;60.90;98911.59;5068100;28;45447;-67
2022/08/22 04:24:51;;;;;;;;;4.60;4.60;;;;;19.24;60.59;98919.47;5074170;28;45483;-67
2022/08/22 04:27:28;;;;;;;;;5.40;5.40;;;;;19.25;61.17;98921.19;5073899;28;45386;-64
2022/08/22 04:30:16;;;;;;;;;3.25;3.25;;;;;19.25;60.99;98925.69;5074425;28;45377;-67
2022/08/22 04:32:51;;;;;;;;;7.00;6.00;;;;;19.27;61.57;98931.75;5073577;27;45512;-67
2022/08/22 04:35:29;;;;;;;;;5.40;5.00;;;;;19.26;61.56;98930.06;5077932;27;45455;-67
2022/08/22 04:38:01;;;;;;;;;6.50;6.00;;;;;19.26;61.23;98927.38;5069171;28;45423;-67
2022/08/22 04:40:44;;;;;;;;;3.60;3.60;;;;;19.25;59.73;98931.88;5073190;28;45508;-67
2022/08/22 04:43:42;;;;;;;;;6.00;3.40;;;;;19.22;59.24;98936.59;5072443;28;46274;-67
2022/08/22 04:46:18;;;;;;;;;4.00;4.00;;;;;19.17;59.94;98939.63;4983747;28;45490;-67
2022/08/22 04:49:04;;;;;;;;;5.40;3.80;;;;;19.14;60.44;98945.22;5073412;28;45421;-67
2022/08/22 04:51:38;;;;;;;;;4.00;4.00;;;;;19.09;60.92;98947.41;5068574;28;45375;-67
2022/08/22 04:54:47;;;;;;;;;3.20;2.80;;;;;19.05;61.35;98949.47;5074057;28;45515;-67
2022/08/22 04:57:21;;;;;;;;;6.80;4.00;;;;;19.00;61.22;98956.97;5064640;28;45395;-66
2022/08/22 04:59:49;;;;;;;;;7.40;6.20;;;;;19.00;61.30;98950.78;5073323;28;45514;-67
2022/08/22 05:02:21;;;;;;;;;4.75;4.25;;;;;18.99;60.62;98941.91;5074155;28;45282;-67
2022/08/22 05:04:55;;;;;;;;;3.60;3.60;;;;;18.98;60.48;98952.72;5073287;28;45400;-67
2022/08/22 05:07:34;;;;;;;;;8.20;5.00;;;;;18.97;62.68;98962.56;5072729;28;45401;-67
2022/08/22 05:10:34;;;;;;;;;5.40;5.40;;;;;18.99;61.96;98973.13;5072866;28;45421;-67
2022/08/22 05:13:17;;;;;;;;;5.00;4.50;;;;;18.97;62.09;98980.41;5074103;27;45500;-67
2022/08/22 05:15:50;;;;;;;;;4.40;4.40;;;;;18.97;61.33;98983.06;5071247;28;45501;-67
2022/08/22 05:18:27;;;;;;;;;5.60;3.80;;;;;18.99;61.11;98981.13;5073075;28;45495;-67
2022/08/22 05:20:55;;;;;;;;;6.00;6.00;;;;;18.99;61.93;98986.47;5073751;28;45446;-68
2022/08/22 05:23:25;;;;;;;;;8.00;7.50;;;;;19.01;62.32;98987.22;5055253;28;45334;-67
2022/08/22 05:25:55;;;;;;;;;5.60;5.60;;;;;19.02;62.14;98995.13;5072983;28;46425;-67
2022/08/22 05:28:37;;;;;;;;;7.00;6.20;;;;;19.06;62.03;98995.75;5073630;28;45237;-70
2022/08/22 05:31:14;;;;;;;;;6.60;6.40;;;;;19.08;62.04;98993.81;5072688;27;45532;-62
2022/08/22 05:33:44;;;;;;;;;4.00;4.00;;;;;19.10;61.91;98994.53;5075073;28;45461;-76
2022/08/22 05:36:36;;;;;;;;;4.80;4.80;;;;;19.13;61.73;98999.63;5075261;28;45456;-75
2022/08/22 05:39:11;;;;;;;;;6.20;5.00;;;;;19.17;61.90;98993.94;5075683;28;45337;-75
2022/08/22 05:41:38;;;;;;;;;6.00;5.40;;;;;19.20;61.82;98992.84;5075264;28;45361;-74
2022/08/22 05:44:15;;;;;;;;;5.25;5.25;;;;;19.25;61.41;99000.53;5075325;28;45369;-76
2022/08/22 05:46:45;;;;;;;;;17.00;17.00;;;;;19.28;61.62;99003.78;5075831;28;45687;-76
2022/08/22 05:49:24;;;;;;;;;6.00;5.20;;;;;19.33;61.25;98990.94;5076335;28;45495;-74
2022/08/22 05:52:27;;;;;;;;;6.60;5.00;;;;;19.38;61.29;98991.44;5081184;27;45452;-75
2022/08/22 05:55:07;;;;;;;;;9.25;6.00;;;;;19.40;61.78;98994.84;5077139;27;45439;-66
2022/08/22 05:57:40;;;;;;;;;5.60;5.60;;;;;19.43;61.23;98994.59;5073311;28;45463;-67
2022/08/22 06:00:15;;;;;;;;;7.20;6.20;;;;;19.48;61.06;98994.22;5081548;27;45534;-62
2022/08/22 06:03:19;;;;;;;;;8.00;7.00;;;;;19.58;60.92;98997.91;5076603;27;45582;-58
2022/08/22 06:05:50;;;;;;;;;7.75;6.00;;;;;19.67;60.77;98994.50;5078977;27;45469;-58
2022/08/22 06:08:34;;;;;;;;;5.00;5.00;;;;;19.75;60.61;99000.09;5074863;28;46250;-58
2022/08/22 06:11:22;;;;;;;;;6.80;5.00;;;;;19.83;60.43;99007.50;5061177;28;45612;-58
2022/08/22 06:14:02;;;;;;;;;9.20;6.80;;;;;19.90;60.55;99002.53;5078814;27;45400;-58
2022/08/22 06:17:00;;;;;;;;;5.75;5.75;;;;;19.96;60.28;99010.91;5075331;28;45489;-58
2022/08/22 06:19:26;;;;;;;;;6.80;5.40;;;;;20.00;59.76;99004.34;5073730;27;45519;-60
2022/08/22 06:21:54;;;;;;;;;7.75;6.75;;;;;20.06;59.83;99013.69;5075984;27;45639;-59
2022/08/22 06:24:24;;;;;;;;;5.40;5.40;;;;;20.10;59.83;99008.00;5076083;27;45458;-59
2022/08/22 06:26:52;;;;;;;;;7.00;5.75;;;;;20.15;59.84;99005.75;5076149;27;45513;-59
2022/08/22 06:29:28;;;;;;;;;5.80;5.80;;;;;20.20;60.28;99008.94;5075040;28;46316;-59
2022/08/22 06:31:55;;;;;;;;;6.40;5.40;;;;;20.26;60.01;99017.44;5060219;27;45440;-58
2022/08/22 06:34:31;;;;;;;;;7.20;6.20;;;;;20.29;59.22;99018.03;5081152;27;45447;-59
2022/08/22 06:37:03;;;;;;;;;6.25;6.00;;;;;20.31;59.74;99013.41;5073409;27;45614;-58
2022/08/22 06:39:33;;;;;;;;;6.20;5.20;;;;;20.36;59.58;99015.72;5075232;28;45424;-58
2022/08/22 06:42:09;;;;;;;;;7.80;6.00;;;;;20.39;59.56;99016.34;5077427;27;45425;-59
2022/08/22 06:44:53;;;;;;;;;8.80;5.60;;;;;20.43;59.47;99015.13;5074702;28;45533;-58
2022/08/22 06:47:31;;;;;;;;;13.00;11.75;;;;;20.48;59.29;99009.38;5066189;28;45439;-58
2022/08/22 06:50:05;;;;;;;;;7.60;7.00;;;;;20.53;59.23;99017.88;5074772;28;46412;-58
2022/08/22 06:52:36;;;;;;;;;8.20;7.00;;;;;20.59;58.74;99016.53;5074655;28;45443;-58
2022/08/22 06:55:07;;;;;;;;;9.20;6.40;;;;;20.64;58.79;99022.34;5076865;27;45456;-58
2022/08/22 06:57:41;;;;;;;;;8.00;7.50;;;;;20.67;58.36;99016.72;5076751;27;45479;-58
2022/08/22 07:00:11;;;;;;;;;6.40;3.20;;;;;20.70;58.30;99021.84;5073472;28;45635;-58
2022/08/22 07:02:41;;;;;;;;;8.60;7.40;;;;;20.73;58.01;99022.44;5073164;28;45524;-58
2022/08/22 07:05:17;;;;;;;;;7.80;7.00;;;;;20.75;58.16;99020.50;5069333;28;45414;-58
2022/08/22 07:07:44;;;;;;;;;10.80;6.20;;;;;20.77;57.99;99026.56;5078436;27;45537;-59
2022/08/22 07:10:14;;;;;;;;;8.00;6.80;;;;;20.81;57.92;99027.16;5077465;27;45737;-58
2022/08/22 07:12:45;;;;;;;;;7.00;6.00;;;;;20.84;57.66;99032.25;5049609;28;45503;-58
2022/08/22 07:15:34;;;;;;;;;9.40;7.80;;;;;20.85;57.56;99025.91;5056963;28;45436;-58
2022/08/22 07:18:03;;;;;;;;;6.80;5.60;;;;;20.88;57.03;99028.34;5073607;27;45388;-58
2022/08/22 07:20:34;;;;;;;;;3.20;3.20;;;;;20.93;56.97;99023.47;5084313;27;46781;-58
2022/08/22 07:23:09;;;;;;;;;6.00;5.00;;;;;20.95;56.39;99028.69;5074411;28;45560;-58
2022/08/22 07:25:47;;;;;;;;;6.20;5.00;;;;;20.95;56.05;99036.75;5074763;28;45397;-58
2022/08/22 07:28:29;;;;;;;;;6.25;6.25;;;;;20.94;56.20;99019.81;5075919;27;45452;-58
2022/08/22 07:31:07;;;;;;;;;4.60;4.60;;;;;20.98;55.90;99012.31;5079440;27;45514;-59
2022/08/22 07:33:43;;;;;;;;;6.00;6.00;;;;;21.03;56.02;99010.97;5076506;27;45385;-65
2022/08/22 07:36:51;;;;;;;;;5.20;5.20;;;;;21.08;55.70;99011.44;5074732;28;45457;-60
2022/08/22 07:39:52;;;;;;;;;6.40;6.40;;;;;21.13;55.24;99005.66;5050124;28;45485;-60
2022/08/22 07:42:34;;;;;;;;;5.80;4.40;;;;;21.12;55.01;99004.81;5072959;28;45722;-65
2022/08/22 07:45:04;;;;;;;;;4.80;3.20;;;;;21.10;54.98;99000.59;5074640;28;45533;-59
2022/08/22 07:47:44;;;;;;;;;3.80;3.40;;;;;21.13;54.92;99011.03;5072133;28;45365;-60
2022/08/22 07:50:15;;;;;;;;;6.00;5.00;;;;;21.18;54.97;99012.34;5066114;27;45523;-63
2022/08/22 07:52:44;;;;;;;;;4.20;4.00;;;;;21.21;54.85;99008.59;5064339;27;46419;-62
2022/08/22 07:55:15;;;;;;;;;5.20;4.60;;;;;21.24;55.09;99001.13;5068071;28;45522;-62
2022/08/22 07:57:46;;;;;;;;;6.75;5.00;;;;;21.30;54.45;98998.88;5065283;27;45433;-61
2022/08/22 08:00:17;;;;;;;;;5.00;5.00;;;;;21.30;54.59;98999.75;5069767;27;45583;-61
2022/08/22 08:02:50;;;;;;;;;5.00;4.20;;;;;21.30;54.01;99004.25;5070888;28;45538;-62
2022/08/22 08:05:16;;;;;;;;;4.80;4.00;;;;;21.32;53.85;99004.97;5070709;28;45380;-61
2022/08/22 08:07:46;;;;;;;;;3.80;3.80;;;;;21.37;54.17;98992.03;5071723;28;45467;-61
2022/08/22 08:10:17;;;;;;;;;4.20;4.20;;;;;21.42;53.78;98989.81;5069850;28;45455;-62
2022/08/22 08:12:47;;;;;;;;;5.40;5.00;;;;;21.47;53.98;98993.78;5070500;27;46616;-62
2022/08/22 08:15:22;;;;;;;;;4.60;4.00;;;;;21.49;53.48;98985.59;5066023;28;45322;-62
2022/08/22 08:17:56;;;;;;;;;6.00;5.00;;;;;21.51;53.50;98989.84;5069530;28;45405;-61
2022/08/22 08:20:25;;;;;;;;;6.00;5.00;;;;;21.52;53.98;98985.34;5073212;28;45424;-61
2022/08/22 08:22:54;;;;;;;;;4.00;4.00;;;;;21.55;53.45;98983.25;5069152;27;47325;-61
2022/08/22 08:25:26;;;;;;;;;5.20;3.20;;;;;21.64;53.44;98980.72;5067349;28;45541;-60
2022/08/22 08:30:54;;;;;;;;;4.25;4.00;;;;;21.69;52.90;98986.53;5073848;27;45432;-61
2022/08/22 08:33:22;;;;;;;;;5.60;4.60;;;;;21.69;52.66;98984.72;5064971;28;46402;-61
2022/08/22 08:36:11;;;;;;;;;4.80;4.00;;;;;21.74;52.70;98993.22;5068823;28;45789;-61
2022/08/22 08:38:54;;;;;;;;;4.00;4.00;;;;;21.78;52.34;98988.44;5072313;28;45488;-61
2022/08/22 08:41:44;;;;;;;;;4.80;4.80;;;;;21.82;52.78;98990.69;5070074;28;45461;-60
2022/08/22 08:44:37;;;;;;;;;4.00;4.00;;;;;21.87;52.39;98987.59;5067822;28;45414;-60
2022/08/22 08:47:24;;;;;;;;;5.20;4.60;;;;;21.94;52.28;98994.97;5069969;28;45408;-61
2022/08/22 08:50:37;;;;;;;;;3.60;3.60;;;;;22.00;52.17;98990.91;5073362;28;45560;-61
2022/08/22 08:53:28;;;;;;;;;5.00;5.00;;;;;22.07;51.71;98992.09;5024677;28;45479;-62
2022/08/22 08:56:11;;;;;;;;;6.00;4.80;;;;;22.12;51.52;98991.69;5069055;28;45488;-61
2022/08/22 08:59:14;;;;;;;;;5.00;5.00;;;;;22.16;51.63;98991.25;5071613;28;45461;-61
2022/08/22 09:02:04;;;;;;;;;5.40;5.00;;;;;22.20;51.84;98997.19;5072533;28;45423;-62
2022/08/22 09:04:29;;;;;;;;;6.00;4.80;;;;;22.23;51.90;98976.28;5069713;28;45483;-61
2022/08/22 09:07:03;;;;;;;;;5.00;5.00;;;;;22.26;52.30;98988.59;5073253;28;45481;-62
2022/08/22 09:09:31;;;;;;;;;3.60;3.60;;;;;22.28;52.16;98976.72;5076083;28;45524;-61
2022/08/22 09:12:16;;;;;;;;;5.00;5.00;;;;;22.30;52.04;98987.31;5076495;28;45569;-61
2022/08/22 09:15:25;;;;;;;;;5.20;3.80;;;;;22.32;52.32;98985.34;5076347;28;45416;-61
2022/08/22 09:18:02;;;;;;;;;5.60;4.40;;;;;22.32;51.95;98965.69;4975641;28;46397;-60
2022/08/22 09:20:49;;;;;;;;;3.00;3.00;;;;;22.36;52.02;98977.84;5052785;28;45581;-61
2022/08/22 09:23:36;;;;;;;;;4.80;3.00;;;;;22.37;52.40;98982.25;5075059;28;45744;-60
2022/08/22 09:26:28;;;;;;;;;6.00;4.20;;;;;22.38;52.56;98967.81;5076173;28;45456;-60
2022/08/22 09:29:31;;;;;;;;;2.80;2.80;;;;;22.43;52.24;98979.84;5075563;28;45606;-60
2022/08/22 09:32:17;;;;;;;;;4.00;2.40;;;;;22.47;52.38;98965.13;5052256;28;45435;-69
2022/08/22 09:34:55;;;;;;;;;4.00;4.00;;;;;22.48;52.91;98974.91;5076783;28;45495;-69
2022/08/22 09:37:24;;;;;;;;;5.00;5.00;;;;;22.54;52.71;98962.75;5055867;28;45396;-69
2022/08/22 09:39:54;;;;;;;;;2.00;2.00;;;;;22.61;52.43;98972.81;5056160;28;47014;-69
2022/08/22 09:43:01;;;;;;;;;3.60;3.60;;;;;22.66;52.17;98948.16;5056120;28;45524;-69
2022/08/22 09:45:44;;;;;;;;;4.80;4.80;;;;;22.71;52.33;98958.50;5054918;28;45378;-69
2022/08/22 09:48:31;;;;;;;;;5.00;5.00;;;;;22.77;52.21;98945.38;5055243;28;45399;-69
2022/08/22 09:51:23;;;;;;;;;5.20;5.20;;;;;22.81;52.41;98937.88;5054871;28;46398;-69
2022/08/22 09:54:10;;;;;;;;;3.60;3.60;;;;;22.88;52.13;98926.41;5056238;28;45524;-69
2022/08/22 09:56:38;;;;;;;;;6.00;5.00;;;;;22.95;52.36;98916.78;5053554;28;45571;-68
2022/08/22 09:59:20;;;;;;;;;5.00;5.00;;;;;23.03;51.52;98931.34;5055942;28;45387;-69
2022/08/22 10:01:46;;;;;;;;;5.40;5.40;;;;;23.09;51.10;98909.25;5055212;28;46205;-69
2022/08/22 10:04:31;;;;;;;;;6.00;5.00;;;;;23.14;50.92;98913.16;5056288;28;45463;-69
2022/08/22 10:07:10;;;;;;;;;5.60;5.00;;;;;23.22;50.69;98912.47;5037623;28;45350;-68
2022/08/22 10:09:38;;;;;;;;;5.60;5.00;;;;;23.26;51.24;98911.19;5056000;28;45606;-68
2022/08/22 10:12:09;;;;;;;;;3.40;3.40;;;;;23.30;51.12;98913.41;5055293;28;46215;-61
2022/08/22 10:15:06;;;;;;;;;5.00;3.00;;;;;23.39;51.04;98908.16;5056286;28;45489;-68
2022/08/22 10:17:37;;;;;;;;;3.40;3.00;;;;;23.44;50.92;98890.56;5048922;28;45545;-68
2022/08/22 10:20:26;;;;;;;;;5.00;4.60;;;;;23.51;50.63;98898.88;5056288;28;45326;-68
2022/08/22 10:23:14;;;;;;;;;5.60;4.40;;;;;23.56;50.03;98893.94;5055117;28;46663;-68
2022/08/22 10:25:51;;;;;;;;;6.00;5.60;;;;;23.60;50.33;98892.66;5055534;28;45435;-67
2022/08/22 10:28:38;;;;;;;;;7.20;5.20;;;;;23.68;49.80;98892.75;5037091;28;45518;-67
2022/08/22 10:31:51;;;;;;;;;3.80;3.80;;;;;23.73;49.87;98903.91;5042832;28;45352;-67
2022/08/22 10:34:27;;;;;;;;;4.60;4.60;;;;;23.80;50.07;98878.06;4957414;28;48171;-67
2022/08/22 10:37:13;;;;;;;;;4.80;4.80;;;;;23.91;49.21;98879.72;5003992;28;45379;-67
2022/08/22 10:39:58;;;;;;;;;4.20;3.80;;;;;23.96;49.42;98882.81;5039677;28;45419;-54
2022/08/22 10:42:30;;;;;;;;;4.20;3.00;;;;;24.00;48.83;98884.19;5074608;28;45540;-55
2022/08/22 10:45:18;;;;;;;;;5.60;5.00;;;;;24.09;48.66;98896.75;5075947;28;46434;-57
2022/08/22 10:47:52;;;;;;;;;4.00;4.00;;;;;24.15;48.45;98860.25;5075134;28;45429;-56
2022/08/22 10:50:30;;;;;;;;;6.00;4.00;;;;;24.24;48.27;98870.16;5075935;28;45464;-56
2022/08/22 10:53:32;;;;;;;;;0.80;0.80;;;;;24.28;48.52;98852.69;5057044;28;45442;-55
2022/08/22 10:56:22;;;;;;;;;4.00;4.00;;;;;24.37;48.21;98861.69;5075425;28;47079;-56
2022/08/22 10:59:07;;;;;;;;;4.80;3.60;;;;;24.44;47.87;98879.78;5076319;28;45428;-55
2022/08/22 11:01:38;;;;;;;;;5.40;5.40;;;;;24.51;47.77;98842.25;5056536;28;45467;-55
2022/08/22 11:04:25;;;;;;;;;6.50;5.75;;;;;24.58;47.36;98857.66;5071962;28;45461;-55
2022/08/22 11:07:08;;;;;;;;;4.80;4.80;;;;;24.67;47.61;98872.88;5074987;28;45549;-55
2022/08/22 11:09:40;;;;;;;;;3.60;3.60;;;;;24.73;46.68;98851.69;5075456;28;45423;-55
2022/08/22 11:12:18;;;;;;;;;4.20;4.00;;;;;24.80;47.01;98845.50;5073402;28;45472;-55
2022/08/22 11:15:07;;;;;;;;;4.00;4.00;;;;;24.89;46.61;98843.72;5075744;28;45588;-55
2022/08/22 11:17:59;;;;;;;;;3.60;3.60;;;;;24.95;46.48;98838.59;5072985;28;45468;-55
2022/08/22 11:20:31;;;;;;;;;4.60;3.60;;;;;25.00;46.52;98846.16;5075057;28;45342;-55
2022/08/22 11:23:18;;;;;;;;;2.80;2.80;;;;;25.07;46.11;98849.94;5074891;28;45420;-55
2022/08/22 11:26:25;;;;;;;;;4.60;3.40;;;;;25.15;46.80;98851.81;5056730;28;45509;-56
2022/08/22 11:29:28;;;;;;;;;3.00;3.00;;;;;25.23;45.36;98843.78;4952505;28;45494;-56
2022/08/22 11:32:29;;;;;;;;;5.80;3.80;;;;;25.28;46.01;98846.84;5071356;28;45397;-56
2022/08/22 11:35:03;;;;;;;;;3.60;2.60;;;;;25.33;45.89;98860.69;5053136;28;45509;-56
2022/08/22 11:37:43;;;;;;;;;3.80;3.20;;;;;25.43;45.52;98852.47;5074199;28;45556;-56
2022/08/22 11:40:53;;;;;;;;;4.00;4.00;;;;;25.44;45.44;98856.88;5073681;28;45530;-55
2022/08/22 11:43:36;;;;;;;;;5.20;4.20;;;;;25.51;45.56;98817.41;5069910;28;45504;-56
2022/08/22 11:46:28;;;;;;;;;6.40;5.60;;;;;25.60;44.42;98822.69;5064878;28;45357;-57
2022/08/22 11:49:05;;;;;;;;;5.00;5.00;;;;;25.62;44.35;98838.75;5065531;28;45922;-56
2022/08/22 11:51:45;;;;;;;;;2.40;1.40;;;;;25.66;45.13;98815.78;5074199;28;46543;-56
2022/08/22 11:54:19;;;;;;;;;6.20;3.80;;;;;25.77;43.88;98825.47;5074002;28;45474;-56
2022/08/22 11:56:54;;;;;;;;;4.00;4.00;;;;;25.81;43.79;98843.00;5074117;27;45565;-56
2022/08/22 11:59:49;;;;;;;;;4.60;4.60;;;;;25.86;43.90;98832.56;5074808;27;45460;-58
2022/08/22 12:02:33;;;;;;;;;5.40;3.80;;;;;25.88;43.55;98838.66;5065923;27;46514;-57
2022/08/22 12:05:09;;;;;;;;;0.80;0.80;;;;;25.92;43.77;98813.00;5076426;27;45413;-57
2022/08/22 12:07:39;;;;;;;;;2.60;2.00;;;;;26.00;44.22;98815.69;5061700;28;45468;-56
2022/08/22 12:10:15;;;;;;;;;0.20;0.20;;;;;26.10;43.65;98812.84;5070071;28;45439;-57
2022/08/22 12:12:50;;;;;;;;;5.40;3.80;;;;;26.18;43.90;98797.47;5074047;28;46372;-57
2022/08/22 12:15:19;;;;;;;;;4.80;3.80;;;;;26.24;42.33;98818.44;5076304;27;45560;-58
2022/08/22 12:18:21;;;;;;;;;4.80;3.80;;;;;26.26;41.92;98815.56;5076377;27;45480;-58
2022/08/22 12:21:11;;;;;;;;;4.20;3.80;;;;;26.29;42.66;98804.47;5074788;27;45387;-58
2022/08/22 12:23:55;;;;;;;;;4.20;4.20;;;;;26.31;42.51;98799.72;5072804;27;45704;-58
2022/08/22 12:26:28;;;;;;;;;5.60;5.40;;;;;26.35;42.69;98817.28;5073642;27;45522;-58
2022/08/22 12:29:17;;;;;;;;;4.80;4.20;;;;;26.41;42.36;98789.56;5075190;27;45510;-58
2022/08/22 12:31:57;;;;;;;;;5.60;3.80;;;;;26.49;42.07;98797.66;5065548;27;45532;-58
2022/08/22 12:34:47;;;;;;;;;5.00;3.20;;;;;26.53;42.08;98782.81;5074554;27;46139;-58
2022/08/22 12:37:25;;;;;;;;;3.60;3.60;;;;;26.57;41.93;98813.06;5071209;28;45441;-58
2022/08/22 12:40:11;;;;;;;;;5.00;3.80;;;;;26.62;41.78;98779.09;5066744;28;45496;-58
2022/08/22 12:42:36;;;;;;;;;1.20;0.40;;;;;26.67;41.08;98803.72;5065520;28;45439;-58
2022/08/22 12:45:07;;;;;;;;;4.75;4.00;;;;;26.66;41.40;98793.09;5072971;28;45524;-58
2022/08/22 12:47:51;;;;;;;;;2.60;2.60;;;;;26.65;41.42;98799.50;5072767;28;45511;-58